createdAt,value
2023-06-30T00:03:54.209Z,5.00
2023-06-30T00:10:55.825Z,4.72
2023-06-30T00:17:57.716Z,4.65
2023-06-30T00:25:00.074Z,4.90
2023-06-30T00:32:01.707Z,7.00
2023-06-30T00:39:03.894Z,7.95
2023-06-30T00:46:06.107Z,8.48
2023-06-30T00:53:07.805Z,9.75
2023-06-30T01:00:12.372Z,9.77
2023-06-30T01:07:18.566Z,9.38
2023-06-30T01:14:20.534Z,9.70
2023-06-30T01:21:22.753Z,10.27
2023-06-30T01:28:24.349Z,10.70
2023-06-30T01:35:26.896Z,11.07
2023-06-30T01:42:28.602Z,11.60
2023-06-30T01:49:30.217Z,11.45
2023-06-30T01:56:31.839Z,10.68
2023-06-30T02:03:33.576Z,10.50
2023-06-30T02:10:35.245Z,10.60
2023-06-30T02:17:36.969Z,10.50
2023-06-30T02:24:38.674Z,11.45
2023-06-30T02:31:40.323Z,10.82
2023-06-30T02:38:41.961Z,11.02
2023-06-30T02:45:43.841Z,11.10
2023-06-30T02:52:46.100Z,10.23
2023-06-30T02:59:47.761Z,10.50
2023-06-30T03:06:49.437Z,11.07
2023-06-30T03:13:53.220Z,10.80
2023-06-30T03:20:55.559Z,11.68
2023-06-30T03:27:57.308Z,11.60
2023-06-30T03:35:01.130Z,11.00
2023-06-30T03:42:02.987Z,10.68
2023-06-30T03:49:04.732Z,11.25
2023-06-30T03:56:06.388Z,10.55
2023-06-30T04:03:08.177Z,11.45
2023-06-30T04:10:10.144Z,11.30
2023-06-30T04:17:11.773Z,10.57
2023-06-30T04:24:13.326Z,11.25
2023-06-30T04:31:14.932Z,10.82
2023-06-30T04:38:16.670Z,11.15
2023-06-30T04:45:19.302Z,11.23
2023-06-30T04:52:20.970Z,10.95
2023-06-30T04:59:22.532Z,11.02
2023-06-30T05:06:24.140Z,11.00
2023-06-30T05:13:28.603Z,11.05
2023-06-30T05:20:30.213Z,10.98
2023-06-30T05:27:31.857Z,10.77
2023-06-30T05:34:33.584Z,10.90
2023-06-30T05:41:35.133Z,10.38
2023-06-30T05:48:36.683Z,10.57
2023-06-30T05:55:38.247Z,10.50
2023-06-30T06:02:39.856Z,10.38
2023-06-30T06:09:41.549Z,10.32
2023-06-30T06:16:45.751Z,10.52
2023-06-30T06:23:47.469Z,11.10
2023-06-30T06:30:49.664Z,11.20
2023-06-30T06:37:51.287Z,9.82
2023-06-30T06:44:52.858Z,10.15
2023-06-30T06:51:54.493Z,8.45
2023-06-30T06:58:56.078Z,9.07
2023-06-30T07:06:00.947Z,9.13
2023-06-30T07:13:03.167Z,9.05
2023-06-30T07:20:05.163Z,8.90
2023-06-30T07:27:07.028Z,8.25
2023-06-30T07:34:08.618Z,8.75
2023-06-30T07:41:10.222Z,9.30
2023-06-30T07:48:11.961Z,8.70
2023-06-30T07:55:14.012Z,9.00
2023-06-30T08:02:15.812Z,9.10
2023-06-30T08:09:17.473Z,8.43
2023-06-30T08:16:21.195Z,8.57
2023-06-30T08:23:23.283Z,8.98
2023-06-30T08:30:25.514Z,8.88
2023-06-30T08:37:27.353Z,8.43
2023-06-30T08:44:29.109Z,8.00
2023-06-30T08:51:30.728Z,8.80
2023-06-30T08:58:32.301Z,8.60
2023-06-30T09:05:34.027Z,9.32
2023-06-30T09:12:35.656Z,8.90
2023-06-30T09:19:37.303Z,8.68
2023-06-30T09:26:38.938Z,8.75
2023-06-30T09:33:41.897Z,8.55
2023-06-30T09:40:44.780Z,9.98
2023-06-30T09:47:55.611Z,9.35
2023-06-30T09:54:57.258Z,11.00
2023-06-30T10:01:59.459Z,11.15
2023-06-30T10:09:01.146Z,12.27
2023-06-30T10:16:02.972Z,11.57
2023-06-30T10:23:05.781Z,11.65
2023-06-30T10:30:08.414Z,11.18
2023-06-30T10:37:09.985Z,13.15
2023-06-30T10:44:11.667Z,13.88
2023-06-30T10:51:13.544Z,12.85
2023-06-30T10:58:27.334Z,12.25
2023-06-30T11:05:33.856Z,11.57
2023-06-30T11:13:00.186Z,12.55
2023-06-30T11:20:01.677Z,12.45
2023-06-30T11:27:05.115Z,11.85
2023-06-30T11:34:06.720Z,12.85
2023-06-30T11:41:08.331Z,12.68
2023-06-30T11:48:09.988Z,13.23
2023-06-30T11:55:12.667Z,12.77
2023-06-30T12:02:14.344Z,13.45
2023-06-30T12:09:15.973Z,12.68
2023-06-30T12:16:18.389Z,13.38
2023-06-30T12:23:20.000Z,13.13
2023-06-30T12:30:22.768Z,4.22
2023-06-30T12:37:26.215Z,5.32
2023-06-30T12:44:27.809Z,4.93
2023-06-30T12:51:29.430Z,4.85
2023-06-30T12:58:31.024Z,4.63
2023-06-30T13:05:33.077Z,4.22
2023-06-30T13:12:37.158Z,3.75
2023-06-30T13:19:38.774Z,4.38
2023-06-30T13:26:40.389Z,4.35
2023-06-30T13:33:42.004Z,4.43
2023-06-30T13:40:45.078Z,4.90
2023-06-30T13:47:48.179Z,4.78
2023-06-30T13:54:49.897Z,5.68
2023-06-30T14:01:51.526Z,5.70
2023-06-30T14:08:54.032Z,4.97
2023-06-30T14:15:55.649Z,4.90
2023-06-30T14:22:57.512Z,4.68
2023-06-30T14:29:59.526Z,4.85
2023-06-30T14:37:01.182Z,4.50
2023-06-30T14:44:03.315Z,3.90
2023-06-30T14:51:05.747Z,3.38
2023-06-30T14:58:07.559Z,3.00
2023-06-30T15:05:09.281Z,3.45
2023-06-30T15:12:10.917Z,6.72
2023-06-30T15:19:12.529Z,3.70
2023-06-30T15:26:14.223Z,3.47
2023-06-30T15:33:16.133Z,4.85
2023-06-30T15:40:17.955Z,2.80
2023-06-30T15:47:19.560Z,4.30
2023-06-30T15:54:21.133Z,3.50
2023-06-30T16:01:22.772Z,3.58
2023-06-30T16:08:24.365Z,3.05
2023-06-30T16:15:25.951Z,3.50
2023-06-30T16:22:27.591Z,4.68
2023-06-30T16:29:38.212Z,3.20
2023-06-30T16:36:40.998Z,8.20
2023-06-30T16:43:42.814Z,3.90
2023-06-30T16:50:44.435Z,3.10
2023-06-30T16:57:47.685Z,6.00
2023-06-30T17:04:49.699Z,9.95
2023-06-30T17:11:51.454Z,2.83
2023-06-30T17:18:53.130Z,8.27
2023-06-30T17:25:54.713Z,8.77
2023-06-30T17:32:56.396Z,11.25
2023-06-30T17:39:58.067Z,12.43
2023-06-30T17:46:59.736Z,6.75
2023-06-30T17:54:01.468Z,3.45
2023-06-30T18:01:03.182Z,10.60
2023-06-30T18:08:05.178Z,4.35
2023-06-30T18:15:07.509Z,3.30
2023-06-30T18:22:09.190Z,3.60
2023-06-30T18:29:10.824Z,11.35
2023-06-30T18:36:12.412Z,2.80
2023-06-30T18:43:18.567Z,6.70
2023-06-30T18:50:20.265Z,7.28
2023-06-30T18:57:21.887Z,9.65
2023-06-30T19:04:23.674Z,7.72
2023-06-30T19:11:25.497Z,8.02
2023-06-30T19:18:27.071Z,3.60
2023-06-30T19:25:28.700Z,5.45
2023-06-30T19:32:30.374Z,8.02
2023-06-30T19:39:32.058Z,9.93
2023-06-30T19:46:35.141Z,14.93
2023-06-30T19:53:36.848Z,9.30
2023-06-30T20:00:39.186Z,14.50
2023-06-30T20:07:41.062Z,3.92
2023-06-30T20:14:42.694Z,8.20
2023-06-30T20:21:44.376Z,4.82
2023-06-30T20:28:45.965Z,4.60
2023-06-30T20:35:47.717Z,4.20
2023-06-30T20:42:49.509Z,3.40
2023-06-30T20:49:51.173Z,3.60
2023-06-30T20:56:54.100Z,3.00
2023-06-30T21:03:56.376Z,3.25
2023-06-30T21:10:58.113Z,4.95
2023-06-30T21:17:59.788Z,7.20
2023-06-30T21:25:01.494Z,3.92
2023-06-30T21:32:03.685Z,3.45
2023-06-30T21:39:10.031Z,3.55
2023-06-30T21:46:15.793Z,4.28
2023-06-30T21:53:17.431Z,3.60
2023-06-30T22:00:19.252Z,3.67
2023-06-30T22:07:21.005Z,3.53
2023-06-30T22:14:23.527Z,4.20
2023-06-30T22:21:25.284Z,3.45
2023-06-30T22:28:26.848Z,3.33
2023-06-30T22:35:28.476Z,3.67
2023-06-30T22:42:30.051Z,3.17
2023-06-30T22:49:31.728Z,3.30
2023-06-30T22:56:33.375Z,3.15
2023-06-30T23:03:35.097Z,3.55
2023-06-30T23:10:36.780Z,3.47
2023-06-30T23:17:40.348Z,3.50
2023-06-30T23:24:47.702Z,3.58
2023-06-30T23:31:49.387Z,3.60
2023-06-30T23:38:51.229Z,3.67
2023-06-30T23:45:52.933Z,4.10
2023-06-30T23:52:54.644Z,4.03
2023-06-30T23:59:56.346Z,3.88
